Time;durP1;ratioP1;P1;durP2;ratioP2;P2;SDS_P1;SDS_P2;PMS_P1;PMS_P2;Temp;Humidity;BMP_temperature;BMP_pressure;BME280_temperature;BME280_humidity;BME280_pressure;Samples;Min_cycle;Max_cycle;Signal;HPM_P1;HPM_P2
2023/07/31 00:01:10;;;;;;;;;;;23.30;61.80;;;;;;8392707;28;20395;-77
2023/07/31 00:05:11;;;;;;;;;;;23.30;61.80;;;;;;8420844;28;19920;-77
2023/07/31 00:09:11;;;;;;;;;;;23.30;61.90;;;;;;8386396;28;19967;-77
2023/07/31 00:13:12;;;;;;;;;;;23.30;61.90;;;;;;8392628;28;20502;-77
2023/07/31 00:17:12;;;;;;;;;;;23.30;61.90;;;;;;8393540;28;19913;-77
2023/07/31 00:21:13;;;;;;;;;;;23.30;61.90;;;;;;8396817;28;20023;-78
2023/07/31 00:25:13;;;;;;;;;;;23.30;61.90;;;;;;8364001;28;19924;-78
2023/07/31 00:29:14;;;;;;;;;;;23.30;61.90;;;;;;8398528;28;20320;-78
2023/07/31 00:33:14;;;;;;;;;;;23.30;61.90;;;;;;8380466;28;19981;-77
2023/07/31 00:37:15;;;;;;;;;;;23.30;61.90;;;;;;8398375;28;19978;-78
2023/07/31 00:41:15;;;;;;;;;;;23.30;61.80;;;;;;8347768;28;19912;-77
2023/07/31 00:45:16;;;;;;;;;;;23.30;61.80;;;;;;8398079;28;19923;-78
2023/07/31 00:49:16;;;;;;;;;;;23.30;61.90;;;;;;8397565;28;20520;-77
2023/07/31 00:53:17;;;;;;;;;;;23.40;61.90;;;;;;8397497;28;19920;-78
2023/07/31 00:57:18;;;;;;;;;;;23.30;61.80;;;;;;8397603;28;19912;-77
2023/07/31 01:01:19;;;;;;;;;;;23.30;61.80;;;;;;8379942;28;19912;-78
2023/07/31 01:05:23;;;;;;;;;;;23.30;61.80;;;;;;8363260;28;19924;-78
2023/07/31 01:09:31;;;;;;;;;;;23.30;61.80;;;;;;8397299;28;20428;-78
2023/07/31 01:13:32;;;;;;;;;;;23.30;61.90;;;;;;8379335;28;19915;-78
2023/07/31 01:17:33;;;;;;;;;;;23.30;61.80;;;;;;8397026;28;20369;-78
2023/07/31 01:21:36;;;;;;;;;;;23.30;61.90;;;;;;8397131;28;19916;-78
2023/07/31 01:25:55;;;;;;;;;;;23.30;61.90;;;;;;8396334;28;19912;-78
2023/07/31 01:30:00;;;;;;;;;;;23.30;61.90;;;;;;8396423;28;19912;-77
2023/07/31 01:34:01;;;;;;;;;;;23.30;61.90;;;;;;8378562;28;19915;-77
2023/07/31 01:38:01;;;;;;;;;;;23.30;61.80;;;;;;8395970;28;19920;-77
2023/07/31 01:42:02;;;;;;;;;;;23.30;61.90;;;;;;8397847;28;19913;-77
2023/07/31 01:46:02;;;;;;;;;;;23.30;61.90;;;;;;8398265;28;20007;-78
2023/07/31 01:50:03;;;;;;;;;;;23.30;61.90;;;;;;8381754;28;19939;-77
2023/07/31 01:54:04;;;;;;;;;;;23.30;61.90;;;;;;8406225;28;19943;-77
2023/07/31 01:58:04;;;;;;;;;;;23.30;62.00;;;;;;8384558;28;19912;-77
2023/07/31 02:02:05;;;;;;;;;;;23.30;61.90;;;;;;8395584;28;20441;-78
2023/07/31 02:06:06;;;;;;;;;;;23.30;62.80;;;;;;8377730;28;20014;-77
2023/07/31 02:10:06;;;;;;;;;;;23.30;61.90;;;;;;8395124;28;19960;-77
2023/07/31 02:14:07;;;;;;;;;;;23.30;61.90;;;;;;8395499;28;19913;-78
2023/07/31 02:18:07;;;;;;;;;;;23.30;61.90;;;;;;8377378;28;19923;-78
2023/07/31 02:22:08;;;;;;;;;;;23.30;61.90;;;;;;8395130;28;19916;-78
2023/07/31 02:26:08;;;;;;;;;;;23.30;61.90;;;;;;8376647;28;19970;-78
2023/07/31 02:30:09;;;;;;;;;;;23.30;61.90;;;;;;8377044;28;20382;-78
2023/07/31 02:34:10;;;;;;;;;;;23.30;61.90;;;;;;8394519;28;20324;-78
2023/07/31 02:38:10;;;;;;;;;;;23.30;61.90;;;;;;8394743;28;19913;-77
2023/07/31 02:42:12;;;;;;;;;;;23.30;61.90;;;;;;8375969;28;19918;-78
2023/07/31 02:46:13;;;;;;;;;;;23.30;61.90;;;;;;8394042;28;19912;-78
2023/07/31 02:50:13;;;;;;;;;;;23.30;61.90;;;;;;8375999;28;19962;-77
2023/07/31 02:54:14;;;;;;;;;;;23.30;61.90;;;;;;8376876;28;19918;-78
2023/07/31 02:58:14;;;;;;;;;;;23.30;61.90;;;;;;8393885;28;19913;-78
2023/07/31 03:02:15;;;;;;;;;;;23.30;61.90;;;;;;8394320;28;19913;-78
2023/07/31 03:06:15;;;;;;;;;;;23.30;61.90;;;;;;8394038;28;20573;-78
2023/07/31 03:10:16;;;;;;;;;;;23.30;61.90;;;;;;8343237;28;20505;-78
2023/07/31 03:14:16;;;;;;;;;;;23.30;61.90;;;;;;8359416;28;19912;-78
2023/07/31 03:18:17;;;;;;;;;;;23.30;61.90;;;;;;8360909;28;19917;-77
2023/07/31 03:22:17;;;;;;;;;;;23.30;61.90;;;;;;8359268;28;20293;-78
2023/07/31 03:26:18;;;;;;;;;;;23.30;61.90;;;;;;8342005;28;19978;-78
2023/07/31 03:30:19;;;;;;;;;;;23.30;61.90;;;;;;8358956;28;19913;-78
2023/07/31 03:34:19;;;;;;;;;;;23.30;62.00;;;;;;8359566;28;20003;-78
2023/07/31 03:38:20;;;;;;;;;;;23.30;62.00;;;;;;8342692;28;19913;-78
2023/07/31 03:42:20;;;;;;;;;;;23.30;62.00;;;;;;8360330;28;19913;-77
2023/07/31 03:46:21;;;;;;;;;;;23.20;62.00;;;;;;8360013;28;20033;-78
2023/07/31 03:50:21;;;;;;;;;;;23.20;62.00;;;;;;8333825;28;19912;-77
2023/07/31 03:54:22;;;;;;;;;;;23.20;61.90;;;;;;8355699;28;19913;-78
2023/07/31 03:58:23;;;;;;;;;;;23.20;61.90;;;;;;8375152;28;19913;-78
2023/07/31 04:02:23;;;;;;;;;;;23.20;61.90;;;;;;8369543;28;19936;-78
2023/07/31 04:06:24;;;;;;;;;;;23.20;61.90;;;;;;8366710;28;19917;-78
2023/07/31 04:10:24;;;;;;;;;;;23.30;62.00;;;;;;8349006;28;19921;-77
2023/07/31 04:14:25;;;;;;;;;;;23.30;62.00;;;;;;8366860;28;19958;-78
2023/07/31 04:18:26;;;;;;;;;;;23.30;61.90;;;;;;8331433;28;20252;-78
2023/07/31 04:22:26;;;;;;;;;;;23.30;62.80;;;;;;8348361;28;19913;-77
2023/07/31 04:26:27;;;;;;;;;;;23.30;62.70;;;;;;8364045;28;19916;-77
2023/07/31 04:30:28;;;;;;;;;;;23.20;61.90;;;;;;8348004;28;19971;-77
2023/07/31 04:34:28;;;;;;;;;;;23.20;61.90;;;;;;8365854;28;19909;-78
2023/07/31 04:38:29;;;;;;;;;;;23.20;61.90;;;;;;8365613;28;19913;-78
2023/07/31 04:42:29;;;;;;;;;;;23.20;61.90;;;;;;8363731;28;19917;-77
2023/07/31 04:46:30;;;;;;;;;;;23.30;62.00;;;;;;8365419;28;19916;-77
2023/07/31 04:50:30;;;;;;;;;;;23.30;61.90;;;;;;8365592;28;19913;-77
2023/07/31 04:54:31;;;;;;;;;;;23.30;61.90;;;;;;8363229;28;20370;-78
2023/07/31 04:58:31;;;;;;;;;;;23.30;62.00;;;;;;8346976;28;20011;-78
2023/07/31 05:02:32;;;;;;;;;;;23.20;61.90;;;;;;8364706;28;19952;-78
2023/07/31 05:06:32;;;;;;;;;;;23.20;61.90;;;;;;8362647;28;20435;-77
2023/07/31 05:10:33;;;;;;;;;;;23.20;61.90;;;;;;8390359;28;19925;-78
2023/07/31 05:14:33;;;;;;;;;;;23.30;62.10;;;;;;8397651;28;19920;-77
2023/07/31 05:18:34;;;;;;;;;;;23.20;62.00;;;;;;8379546;28;20274;-77
2023/07/31 05:22:34;;;;;;;;;;;23.20;62.00;;;;;;8397253;28;19912;-78
2023/07/31 05:26:35;;;;;;;;;;;23.20;62.10;;;;;;8378767;28;19928;-77
2023/07/31 05:30:35;;;;;;;;;;;23.20;62.00;;;;;;8378980;28;19913;-77
2023/07/31 05:34:36;;;;;;;;;;;23.20;62.00;;;;;;8345398;28;20006;-77
2023/07/31 05:38:36;;;;;;;;;;;23.20;62.00;;;;;;8378855;28;19919;-77
2023/07/31 05:42:38;;;;;;;;;;;23.20;61.90;;;;;;8396945;28;19921;-78
2023/07/31 05:46:38;;;;;;;;;;;23.20;61.90;;;;;;8362071;28;20014;-77
2023/07/31 05:50:39;;;;;;;;;;;23.20;61.90;;;;;;8396148;28;19921;-77
2023/07/31 05:54:41;;;;;;;;;;;23.20;61.90;;;;;;8395851;28;19919;-78
2023/07/31 05:58:42;;;;;;;;;;;23.20;62.00;;;;;;8378249;28;19908;-77
2023/07/31 06:02:42;;;;;;;;;;;23.30;62.00;;;;;;8395682;28;19912;-77
2023/07/31 06:06:43;;;;;;;;;;;23.20;61.90;;;;;;8377844;28;20614;-78
2023/07/31 06:10:43;;;;;;;;;;;23.20;61.90;;;;;;8395435;28;19928;-78
2023/07/31 06:14:44;;;;;;;;;;;23.20;61.90;;;;;;8395467;28;19909;-77
2023/07/31 06:18:44;;;;;;;;;;;23.20;61.90;;;;;;8376931;28;19919;-78
2023/07/31 06:22:45;;;;;;;;;;;23.20;61.90;;;;;;8360368;28;19912;-77
2023/07/31 06:26:45;;;;;;;;;;;23.20;61.90;;;;;;8376638;28;20376;-77
2023/07/31 06:30:46;;;;;;;;;;;23.20;61.90;;;;;;8376778;28;19966;-77
2023/07/31 06:34:47;;;;;;;;;;;23.20;61.90;;;;;;8393940;28;19913;-77
2023/07/31 06:38:48;;;;;;;;;;;23.20;62.00;;;;;;8394928;28;20305;-78
2023/07/31 06:42:48;;;;;;;;;;;23.20;61.90;;;;;;8395530;28;19966;-77
2023/07/31 06:46:49;;;;;;;;;;;23.20;62.00;;;;;;8394830;28;19975;-78
2023/07/31 06:50:49;;;;;;;;;;;23.20;62.00;;;;;;8394286;28;19912;-78
2023/07/31 06:55:03;;;;;;;;;;;23.20;62.00;;;;;;8375906;28;19912;-77
2023/07/31 06:59:04;;;;;;;;;;;23.20;62.00;;;;;;8394129;28;19909;-77
2023/07/31 07:03:04;;;;;;;;;;;23.20;62.10;;;;;;8376323;28;19919;-78
2023/07/31 07:07:05;;;;;;;;;;;23.20;62.10;;;;;;8375785;28;19916;-78
2023/07/31 07:11:06;;;;;;;;;;;23.20;62.20;;;;;;8375610;28;20396;-77
2023/07/31 07:15:06;;;;;;;;;;;23.20;62.10;;;;;;8393726;28;19913;-78
2023/07/31 07:19:07;;;;;;;;;;;23.20;62.00;;;;;;8375527;28;19915;-77
2023/07/31 07:23:07;;;;;;;;;;;23.20;62.10;;;;;;8393700;28;19977;-77
2023/07/31 07:27:08;;;;;;;;;;;23.20;62.10;;;;;;8364778;28;19931;-77
2023/07/31 07:31:08;;;;;;;;;;;23.20;62.00;;;;;;8404925;28;20339;-77
2023/07/31 07:35:09;;;;;;;;;;;23.20;61.90;;;;;;8405214;28;19913;-77
2023/07/31 07:39:10;;;;;;;;;;;23.20;62.00;;;;;;8406061;28;20350;-77
2023/07/31 07:43:11;;;;;;;;;;;23.20;62.70;;;;;;8405895;28;19909;-78
2023/07/31 07:47:12;;;;;;;;;;;23.20;62.00;;;;;;8388231;28;19963;-78
2023/07/31 07:51:13;;;;;;;;;;;23.20;61.90;;;;;;8386937;28;20026;-77
2023/07/31 07:55:13;;;;;;;;;;;23.20;62.00;;;;;;8385417;28;19913;-77
2023/07/31 07:59:14;;;;;;;;;;;23.20;61.90;;;;;;8404806;28;19919;-77
2023/07/31 08:03:14;;;;;;;;;;;23.20;61.90;;;;;;8404189;28;20494;-78
2023/07/31 08:07:15;;;;;;;;;;;23.20;61.90;;;;;;8387045;28;19959;-77
2023/07/31 08:11:15;;;;;;;;;;;23.20;62.00;;;;;;8385849;28;19924;-78
2023/07/31 08:15:16;;;;;;;;;;;23.20;61.90;;;;;;8405040;28;20312;-78
2023/07/31 08:19:16;;;;;;;;;;;23.20;61.90;;;;;;8386183;28;19920;-78
2023/07/31 08:23:17;;;;;;;;;;;23.20;61.90;;;;;;8404098;28;20110;-78
2023/07/31 08:27:17;;;;;;;;;;;23.20;62.00;;;;;;8368899;28;19924;-78
2023/07/31 08:31:19;;;;;;;;;;;23.20;62.00;;;;;;8385669;28;20387;-77
2023/07/31 08:35:19;;;;;;;;;;;23.10;62.70;;;;;;8404019;28;19912;-77
2023/07/31 08:39:20;;;;;;;;;;;23.20;62.00;;;;;;8384361;28;19908;-77
2023/07/31 08:43:21;;;;;;;;;;;23.20;62.00;;;;;;8379224;28;19913;-78
2023/07/31 08:47:22;;;;;;;;;;;23.20;62.00;;;;;;8380913;28;19946;-77
2023/07/31 08:51:22;;;;;;;;;;;23.20;62.00;;;;;;8380948;28;20000;-77
2023/07/31 08:55:24;;;;;;;;;;;23.10;61.90;;;;;;8399399;28;19908;-78
2023/07/31 08:59:25;;;;;;;;;;;23.20;61.90;;;;;;8384513;28;19912;-77
2023/07/31 09:03:26;;;;;;;;;;;23.20;61.90;;;;;;8401854;28;19912;-78
2023/07/31 09:07:27;;;;;;;;;;;23.20;61.90;;;;;;8397223;28;19962;-77
2023/07/31 09:11:29;;;;;;;;;;;23.20;61.90;;;;;;8397898;28;20363;-77
2023/07/31 09:15:29;;;;;;;;;;;23.20;61.90;;;;;;8363232;28;20354;-78
2023/07/31 09:19:33;;;;;;;;;;;23.20;61.90;;;;;;8379388;28;19913;-77
2023/07/31 09:23:41;;;;;;;;;;;23.20;61.90;;;;;;8379179;28;19975;-78
2023/07/31 09:27:49;;;;;;;;;;;23.20;61.90;;;;;;8397115;28;19920;-77
2023/07/31 09:31:50;;;;;;;;;;;23.20;61.80;;;;;;8396825;28;20496;-77
2023/07/31 09:35:51;;;;;;;;;;;23.20;61.90;;;;;;8396729;28;20286;-77
2023/07/31 09:39:54;;;;;;;;;;;23.20;61.80;;;;;;8378349;28;20289;-77
2023/07/31 09:43:55;;;;;;;;;;;23.20;61.90;;;;;;8396149;28;20362;-77
2023/07/31 09:47:56;;;;;;;;;;;23.20;61.90;;;;;;8396539;28;20343;-77
2023/07/31 09:51:57;;;;;;;;;;;23.20;61.90;;;;;;8395939;28;19908;-78
2023/07/31 09:56:00;;;;;;;;;;;23.20;61.80;;;;;;8396016;28;19912;-77
2023/07/31 10:00:01;;;;;;;;;;;23.20;61.80;;;;;;8395807;28;19912;-78
2023/07/31 10:04:02;;;;;;;;;;;23.20;61.80;;;;;;8395523;28;19917;-78
2023/07/31 10:08:03;;;;;;;;;;;23.10;61.80;;;;;;8395192;28;20016;-78
2023/07/31 10:12:09;;;;;;;;;;;23.10;61.80;;;;;;8394918;28;19908;-77
2023/07/31 10:16:10;;;;;;;;;;;23.20;61.90;;;;;;8377844;28;19916;-78
2023/07/31 10:20:11;;;;;;;;;;;23.10;61.80;;;;;;8395277;28;19944;-78
2023/07/31 10:24:11;;;;;;;;;;;23.10;61.80;;;;;;8395432;28;19956;-77
2023/07/31 10:28:12;;;;;;;;;;;23.20;61.90;;;;;;8394613;28;19909;-78
2023/07/31 10:32:14;;;;;;;;;;;23.20;62.70;;;;;;8394641;28;20304;-77
2023/07/31 10:36:18;;;;;;;;;;;23.10;61.70;;;;;;8395076;28;19909;-78
2023/07/31 10:40:22;;;;;;;;;;;23.20;61.80;;;;;;8394926;28;19962;-77
2023/07/31 10:44:23;;;;;;;;;;;23.20;61.80;;;;;;8376710;28;19912;-78
2023/07/31 10:48:24;;;;;;;;;;;23.20;61.80;;;;;;8376288;28;19922;-78
2023/07/31 10:52:26;;;;;;;;;;;23.20;61.80;;;;;;8394595;28;19913;-77
2023/07/31 10:56:27;;;;;;;;;;;23.20;61.80;;;;;;8376351;28;20022;-77
2023/07/31 11:00:28;;;;;;;;;;;23.20;61.80;;;;;;8395712;28;20223;-77
2023/07/31 11:04:30;;;;;;;;;;;23.20;61.80;;;;;;8394035;28;20286;-78
2023/07/31 11:08:32;;;;;;;;;;;23.20;61.80;;;;;;8394413;28;19924;-77
2023/07/31 11:12:33;;;;;;;;;;;23.20;61.80;;;;;;8376242;28;19912;-77
2023/07/31 11:16:34;;;;;;;;;;;23.20;61.70;;;;;;8395491;28;19965;-78
2023/07/31 11:20:35;;;;;;;;;;;23.20;61.80;;;;;;8398220;28;19912;-77
2023/07/31 11:24:36;;;;;;;;;;;23.20;61.70;;;;;;8364945;28;19963;-77
2023/07/31 11:28:36;;;;;;;;;;;23.20;61.70;;;;;;8382863;28;20139;-77
2023/07/31 11:32:37;;;;;;;;;;;23.20;61.70;;;;;;8394475;28;20306;-77
2023/07/31 11:36:38;;;;;;;;;;;23.20;61.70;;;;;;8394360;28;20306;-77
2023/07/31 11:40:42;;;;;;;;;;;23.20;61.70;;;;;;8376396;28;19920;-78
2023/07/31 11:44:47;;;;;;;;;;;23.20;61.70;;;;;;8376364;28;20023;-78
2023/07/31 11:48:48;;;;;;;;;;;23.20;61.70;;;;;;8394717;28;19912;-77
2023/07/31 11:52:49;;;;;;;;;;;23.20;61.80;;;;;;8375361;28;19916;-78
2023/07/31 11:56:50;;;;;;;;;;;23.20;61.70;;;;;;8358786;28;19913;-77
2023/07/31 12:00:51;;;;;;;;;;;23.20;61.70;;;;;;8375815;28;19919;-77
2023/07/31 12:04:52;;;;;;;;;;;23.20;61.80;;;;;;8392621;28;19913;-77
2023/07/31 12:08:52;;;;;;;;;;;23.20;61.70;;;;;;8375133;28;19925;-78
2023/07/31 12:13:06;;;;;;;;;;;23.20;61.70;;;;;;8392826;28;19919;-78
2023/07/31 12:17:07;;;;;;;;;;;23.20;61.60;;;;;;8396094;28;19996;-78
2023/07/31 12:21:08;;;;;;;;;;;23.20;61.60;;;;;;8364722;28;19912;-78
2023/07/31 12:25:15;;;;;;;;;;;23.20;61.70;;;;;;8398434;28;19924;-78
2023/07/31 12:29:15;;;;;;;;;;;23.20;61.60;;;;;;8381005;28;19916;-76
2023/07/31 12:33:18;;;;;;;;;;;23.20;61.60;;;;;;8398647;28;19913;-79
2023/07/31 12:37:20;;;;;;;;;;;23.20;61.60;;;;;;8398853;28;19916;-79
2023/07/31 12:41:20;;;;;;;;;;;23.30;61.60;;;;;;8398487;28;19955;-79
2023/07/31 12:45:21;;;;;;;;;;;23.30;61.60;;;;;;8363686;28;19920;-78
2023/07/31 12:49:21;;;;;;;;;;;23.20;61.50;;;;;;8398159;28;20362;-78
2023/07/31 12:53:22;;;;;;;;;;;23.20;61.50;;;;;;8380130;28;19927;-78
2023/07/31 12:57:23;;;;;;;;;;;23.30;61.60;;;;;;8379286;28;19959;-78
2023/07/31 13:01:23;;;;;;;;;;;23.30;61.60;;;;;;8397831;28;19977;-78
2023/07/31 13:05:24;;;;;;;;;;;23.20;61.50;;;;;;8397486;28;19916;-78
2023/07/31 13:09:24;;;;;;;;;;;23.30;61.60;;;;;;8363072;28;20380;-78
2023/07/31 13:13:25;;;;;;;;;;;23.30;61.60;;;;;;8397336;28;19913;-78
2023/07/31 13:17:26;;;;;;;;;;;23.20;61.50;;;;;;8397067;28;19971;-78
2023/07/31 13:21:28;;;;;;;;;;;23.20;61.50;;;;;;8379219;28;20223;-78
2023/07/31 13:25:29;;;;;;;;;;;23.20;61.50;;;;;;8361445;28;20068;-78
2023/07/31 13:29:30;;;;;;;;;;;23.30;61.60;;;;;;8396513;28;19915;-78
2023/07/31 13:33:30;;;;;;;;;;;23.30;61.60;;;;;;8396689;28;19920;-78
2023/07/31 13:37:31;;;;;;;;;;;23.30;61.60;;;;;;8396779;28;19920;-78
2023/07/31 13:41:31;;;;;;;;;;;23.20;61.50;;;;;;8344999;28;19916;-78
2023/07/31 13:45:32;;;;;;;;;;;23.20;61.50;;;;;;8396187;28;19918;-78
2023/07/31 13:49:32;;;;;;;;;;;23.30;61.60;;;;;;8396351;28;19913;-78
2023/07/31 13:53:33;;;;;;;;;;;23.30;61.60;;;;;;8378169;28;19909;-78
2023/07/31 13:57:34;;;;;;;;;;;23.30;61.50;;;;;;8395857;28;19948;-78
2023/07/31 14:01:35;;;;;;;;;;;23.30;61.50;;;;;;8361260;28;19913;-78
2023/07/31 14:05:35;;;;;;;;;;;23.30;61.50;;;;;;8361083;28;20400;-78
2023/07/31 14:09:36;;;;;;;;;;;23.30;61.50;;;;;;8394861;28;20304;-78
2023/07/31 14:13:36;;;;;;;;;;;23.30;61.50;;;;;;8361108;28;19921;-78
2023/07/31 14:17:37;;;;;;;;;;;23.30;61.40;;;;;;8360967;28;20365;-78
2023/07/31 14:21:37;;;;;;;;;;;23.30;61.50;;;;;;8395270;28;19913;-78
2023/07/31 14:25:38;;;;;;;;;;;23.30;61.30;;;;;;8376529;28;19966;-78
2023/07/31 14:29:38;;;;;;;;;;;23.30;61.30;;;;;;8377422;28;20041;-78
2023/07/31 14:33:39;;;;;;;;;;;23.30;61.40;;;;;;8377039;28;19956;-78
2023/07/31 14:37:41;;;;;;;;;;;23.30;61.30;;;;;;8393994;28;19913;-78
2023/07/31 14:41:41;;;;;;;;;;;23.30;61.30;;;;;;8394787;28;20393;-78
2023/07/31 14:45:42;;;;;;;;;;;23.30;61.30;;;;;;8376244;28;20329;-77
2023/07/31 14:49:42;;;;;;;;;;;23.30;61.30;;;;;;8394512;28;19908;-77
2023/07/31 14:53:43;;;;;;;;;;;23.30;61.30;;;;;;8359880;28;19999;-78
2023/07/31 14:57:43;;;;;;;;;;;23.30;61.30;;;;;;8394050;28;19935;-77
2023/07/31 15:01:44;;;;;;;;;;;23.30;61.30;;;;;;8376499;28;19909;-78
2023/07/31 15:05:45;;;;;;;;;;;23.30;61.30;;;;;;8376322;28;19916;-78
2023/07/31 15:09:45;;;;;;;;;;;23.30;61.40;;;;;;8359168;28;20371;-77
2023/07/31 15:13:46;;;;;;;;;;;23.30;61.40;;;;;;8343747;28;20028;-77
2023/07/31 15:17:46;;;;;;;;;;;23.30;61.30;;;;;;8361307;28;19939;-77
2023/07/31 15:21:47;;;;;;;;;;;23.30;61.30;;;;;;8360740;28;19939;-77
2023/07/31 15:25:47;;;;;;;;;;;23.30;61.30;;;;;;8360542;28;20024;-77
2023/07/31 15:29:49;;;;;;;;;;;23.30;61.30;;;;;;8359401;28;19913;-77
2023/07/31 15:33:50;;;;;;;;;;;23.30;61.30;;;;;;8343241;28;19909;-78
2023/07/31 15:37:50;;;;;;;;;;;23.30;61.30;;;;;;8359949;28;19948;-77
2023/07/31 15:41:51;;;;;;;;;;;23.30;61.20;;;;;;8361129;28;19909;-77
2023/07/31 15:45:51;;;;;;;;;;;23.30;61.30;;;;;;8362218;28;19917;-78
2023/07/31 15:49:52;;;;;;;;;;;23.30;61.30;;;;;;8364746;28;19913;-77
2023/07/31 15:53:53;;;;;;;;;;;23.30;61.20;;;;;;8366725;28;20286;-77
2023/07/31 15:57:53;;;;;;;;;;;23.30;61.20;;;;;;8366898;28;19963;-77
2023/07/31 16:01:54;;;;;;;;;;;23.30;61.20;;;;;;8349254;28;20042;-77
2023/07/31 16:05:54;;;;;;;;;;;23.30;61.20;;;;;;8366487;28;20011;-78
2023/07/31 16:09:55;;;;;;;;;;;23.30;61.20;;;;;;8386708;28;19924;-77
2023/07/31 16:13:55;;;;;;;;;;;23.30;61.20;;;;;;8381712;28;19919;-77
2023/07/31 16:17:56;;;;;;;;;;;23.30;61.20;;;;;;8381376;28;20396;-77
2023/07/31 16:21:57;;;;;;;;;;;23.30;61.30;;;;;;8399522;28;20004;-77
2023/07/31 16:25:57;;;;;;;;;;;23.30;61.20;;;;;;8398606;28;20377;-77
2023/07/31 16:30:00;;;;;;;;;;;23.30;61.20;;;;;;8364419;28;19916;-77
2023/07/31 16:34:00;;;;;;;;;;;23.30;61.20;;;;;;8381032;28;19913;-78
2023/07/31 16:38:01;;;;;;;;;;;23.30;61.20;;;;;;8363648;28;19912;-77
2023/07/31 16:42:02;;;;;;;;;;;23.30;61.30;;;;;;8398181;28;19919;-77
2023/07/31 16:46:02;;;;;;;;;;;23.30;61.30;;;;;;8363759;28;19917;-77
2023/07/31 16:50:03;;;;;;;;;;;23.30;61.30;;;;;;8380303;28;20404;-78
2023/07/31 16:54:03;;;;;;;;;;;23.30;61.40;;;;;;8398118;28;20287;-77
2023/07/31 16:58:04;;;;;;;;;;;23.30;61.30;;;;;;8397605;28;19962;-78
2023/07/31 17:02:05;;;;;;;;;;;23.30;61.30;;;;;;8397157;28;19916;-78
2023/07/31 17:06:05;;;;;;;;;;;23.30;61.30;;;;;;8380244;28;19924;-77
2023/07/31 17:10:06;;;;;;;;;;;23.30;61.30;;;;;;8397131;28;19935;-77
2023/07/31 17:14:07;;;;;;;;;;;23.30;61.30;;;;;;8397219;28;19912;-77
2023/07/31 17:18:09;;;;;;;;;;;23.30;61.30;;;;;;8379630;28;19919;-77
2023/07/31 17:22:09;;;;;;;;;;;23.30;61.30;;;;;;8379531;28;19916;-78
2023/07/31 17:26:12;;;;;;;;;;;23.30;61.30;;;;;;8396707;28;19962;-77
2023/07/31 17:30:12;;;;;;;;;;;23.30;61.30;;;;;;8397276;28;19970;-78
2023/07/31 17:34:13;;;;;;;;;;;23.30;61.20;;;;;;8396240;28;19916;-77
2023/07/31 17:38:13;;;;;;;;;;;23.30;61.30;;;;;;8379092;28;20396;-77
2023/07/31 17:42:14;;;;;;;;;;;23.30;61.20;;;;;;8362499;28;20319;-78
2023/07/31 17:46:14;;;;;;;;;;;23.30;61.30;;;;;;8396323;28;19917;-77
2023/07/31 17:50:15;;;;;;;;;;;23.30;61.20;;;;;;8397110;28;19913;-77
2023/07/31 17:54:15;;;;;;;;;;;23.30;61.20;;;;;;8361773;28;19966;-77
2023/07/31 17:58:16;;;;;;;;;;;23.30;61.20;;;;;;8395560;28;20277;-77
2023/07/31 18:02:17;;;;;;;;;;;23.30;61.20;;;;;;8378358;28;20387;-78
2023/07/31 18:06:17;;;;;;;;;;;23.30;61.20;;;;;;8387452;28;19916;-77
2023/07/31 18:10:18;;;;;;;;;;;23.30;61.20;;;;;;8395586;28;19940;-77
2023/07/31 18:14:21;;;;;;;;;;;23.40;61.30;;;;;;8401897;28;19944;-77
2023/07/31 18:18:21;;;;;;;;;;;23.30;61.20;;;;;;8363090;28;19912;-78
2023/07/31 18:22:22;;;;;;;;;;;23.30;61.20;;;;;;8345426;28;19913;-77
2023/07/31 18:26:22;;;;;;;;;;;23.30;61.30;;;;;;8343598;28;19917;-78
2023/07/31 18:30:23;;;;;;;;;;;23.30;61.30;;;;;;8361501;28;19951;-77
2023/07/31 18:34:24;;;;;;;;;;;23.30;61.30;;;;;;8361001;28;20125;-77
2023/07/31 18:38:24;;;;;;;;;;;23.30;61.30;;;;;;8361893;28;19913;-78
2023/07/31 18:42:25;;;;;;;;;;;23.30;61.30;;;;;;8361882;28;19915;-78
2023/07/31 18:46:25;;;;;;;;;;;23.30;61.30;;;;;;8361356;28;19917;-78
2023/07/31 18:50:26;;;;;;;;;;;23.30;61.30;;;;;;8360154;28;20275;-77
2023/07/31 18:54:26;;;;;;;;;;;23.30;61.30;;;;;;8360587;28;19908;-78
2023/07/31 18:58:27;;;;;;;;;;;23.30;61.30;;;;;;8360147;28;19913;-77
2023/07/31 19:02:27;;;;;;;;;;;23.30;61.30;;;;;;8361001;28;20235;-77
2023/07/31 19:06:29;;;;;;;;;;;23.30;61.20;;;;;;8360752;28;19975;-77
2023/07/31 19:10:34;;;;;;;;;;;23.30;61.30;;;;;;8385533;28;20353;-77
2023/07/31 19:14:35;;;;;;;;;;;23.30;61.30;;;;;;8393751;28;20362;-77
2023/07/31 19:18:36;;;;;;;;;;;23.30;61.30;;;;;;8394042;28;20316;-77
2023/07/31 19:22:36;;;;;;;;;;;23.30;61.30;;;;;;8359033;28;20407;-78
2023/07/31 19:26:37;;;;;;;;;;;23.30;61.30;;;;;;8374518;28;19924;-78
2023/07/31 19:30:39;;;;;;;;;;;23.30;61.20;;;;;;8375622;28;20378;-77
2023/07/31 19:34:39;;;;;;;;;;;23.30;61.20;;;;;;8375394;28;19913;-77
2023/07/31 19:38:40;;;;;;;;;;;23.30;61.20;;;;;;8358632;28;20008;-77
2023/07/31 19:42:41;;;;;;;;;;;23.30;61.30;;;;;;8375472;28;19912;-77
2023/07/31 19:46:41;;;;;;;;;;;23.30;61.30;;;;;;8375054;28;19967;-77
2023/07/31 19:50:42;;;;;;;;;;;23.30;61.20;;;;;;8375396;28;20582;-77
2023/07/31 19:54:42;;;;;;;;;;;23.40;61.30;;;;;;8393165;28;19908;-78
2023/07/31 19:58:43;;;;;;;;;;;23.30;61.20;;;;;;8358721;28;19920;-78
2023/07/31 20:02:43;;;;;;;;;;;23.30;61.30;;;;;;8392585;28;19983;-77
2023/07/31 20:06:45;;;;;;;;;;;23.30;61.30;;;;;;8364649;28;20412;-77
2023/07/31 20:10:45;;;;;;;;;;;23.30;61.30;;;;;;8398887;28;19974;-77
2023/07/31 20:14:46;;;;;;;;;;;23.30;61.30;;;;;;8391270;28;19912;-77
2023/07/31 20:18:48;;;;;;;;;;;23.30;61.30;;;;;;8394102;28;19913;-78
2023/07/31 20:22:49;;;;;;;;;;;23.30;61.30;;;;;;8375815;28;19909;-78
2023/07/31 20:26:49;;;;;;;;;;;23.30;61.30;;;;;;8374928;28;19920;-77
2023/07/31 20:30:50;;;;;;;;;;;23.30;61.30;;;;;;8393278;28;20441;-78
2023/07/31 20:34:50;;;;;;;;;;;23.30;61.30;;;;;;8374125;28;20255;-77
2023/07/31 20:38:51;;;;;;;;;;;23.30;61.30;;;;;;8379293;28;19920;-77
2023/07/31 20:42:55;;;;;;;;;;;23.30;61.30;;;;;;8397917;28;20023;-77
2023/07/31 20:46:56;;;;;;;;;;;23.30;61.30;;;;;;8374540;28;19920;-77
2023/07/31 20:51:00;;;;;;;;;;;23.40;61.90;;;;;;8393053;28;20003;-78
2023/07/31 20:55:01;;;;;;;;;;;23.30;61.50;;;;;;8382104;28;20370;-77
2023/07/31 20:59:01;;;;;;;;;;;23.40;62.00;;;;;;8382429;28;20289;-78
2023/07/31 21:03:02;;;;;;;;;;;23.40;63.20;;;;;;8400143;28;19913;-77
2023/07/31 21:07:03;;;;;;;;;;;23.40;64.40;;;;;;8399096;28;19955;-77
2023/07/31 21:11:03;;;;;;;;;;;23.50;63.60;;;;;;8381024;28;19928;-77
2023/07/31 21:15:04;;;;;;;;;;;23.50;63.60;;;;;;8399685;28;20271;-77
2023/07/31 21:19:04;;;;;;;;;;;23.50;63.80;;;;;;8399870;28;19912;-78
2023/07/31 21:23:07;;;;;;;;;;;23.50;63.90;;;;;;8381637;28;20255;-78
2023/07/31 21:27:08;;;;;;;;;;;23.50;62.90;;;;;;8380904;28;19923;-78
2023/07/31 21:31:13;;;;;;;;;;;23.50;63.00;;;;;;8381478;28;19916;-79
2023/07/31 21:35:13;;;;;;;;;;;23.50;63.80;;;;;;8398051;28;20365;-80
2023/07/31 21:39:14;;;;;;;;;;;23.50;62.40;;;;;;8381187;28;20403;-77
2023/07/31 21:43:14;;;;;;;;;;;23.50;62.60;;;;;;8381215;28;19935;-79
2023/07/31 21:47:17;;;;;;;;;;;23.50;63.30;;;;;;8381201;28;19912;-77
2023/07/31 21:51:17;;;;;;;;;;;23.50;63.50;;;;;;8380556;28;20250;-77
2023/07/31 21:55:18;;;;;;;;;;;23.50;63.40;;;;;;8398373;28;19912;-77
2023/07/31 21:59:18;;;;;;;;;;;23.50;62.80;;;;;;8398533;28;19920;-77
2023/07/31 22:03:19;;;;;;;;;;;23.50;63.10;;;;;;8396286;28;19920;-72
2023/07/31 22:07:19;;;;;;;;;;;23.50;63.60;;;;;;8379228;28;20027;-71
2023/07/31 22:11:20;;;;;;;;;;;23.50;63.20;;;;;;8397694;28;19921;-72
2023/07/31 22:15:21;;;;;;;;;;;23.50;63.30;;;;;;8379695;28;19912;-71
2023/07/31 22:19:22;;;;;;;;;;;23.50;63.40;;;;;;8397738;28;20353;-72
2023/07/31 22:23:22;;;;;;;;;;;23.50;63.50;;;;;;8397496;28;19916;-71
2023/07/31 22:27:23;;;;;;;;;;;23.50;63.40;;;;;;8379227;28;19943;-72
2023/07/31 22:31:23;;;;;;;;;;;23.50;63.00;;;;;;8396996;28;20370;-70
2023/07/31 22:35:24;;;;;;;;;;;23.60;63.50;;;;;;8396977;28;19917;-70
2023/07/31 22:39:24;;;;;;;;;;;23.60;63.50;;;;;;8397089;28;19912;-70
2023/07/31 22:43:25;;;;;;;;;;;23.60;63.50;;;;;;8378883;28;19915;-70
2023/07/31 22:47:26;;;;;;;;;;;23.50;63.40;;;;;;8396756;28;19966;-70
2023/07/31 22:51:26;;;;;;;;;;;23.60;63.50;;;;;;8396631;28;19974;-70
2023/07/31 22:55:27;;;;;;;;;;;23.60;63.30;;;;;;8378174;28;20418;-69
2023/07/31 22:59:27;;;;;;;;;;;23.60;63.40;;;;;;8395940;28;19982;-70
2023/07/31 23:03:28;;;;;;;;;;;23.60;63.60;;;;;;8396355;28;20007;-70
2023/07/31 23:07:28;;;;;;;;;;;23.60;63.60;;;;;;8396385;28;19917;-70
2023/07/31 23:11:29;;;;;;;;;;;23.60;64.20;;;;;;8378324;28;19970;-70
2023/07/31 23:15:29;;;;;;;;;;;23.60;63.20;;;;;;8396066;28;20381;-71
2023/07/31 23:19:30;;;;;;;;;;;23.60;63.10;;;;;;8390112;28;19928;-70